Aviation Digital Data Service (ADDS)

Output produced by METARs form (0241 UTC 03 July 2022)
found at http://www.aviationweather.gov/metar/data/
 
METAR text: KLMO 030235Z AUTO 00000KT 10SM SCT037 SCT043 SCT049 27/08 A3007 RMK AO2 T02650076
Conditions at: KLMO (LONGMONT/VBRAND , CO, US) observed 0235 UTC 03 July 2022
Temperature: 26.5°C (80°F)
Dewpoint: 7.6°C (46°F) [RH = 30%]
Pressure (altimeter): 30.07 inches Hg (1018.4 mb)
Winds: calm
Visibility: 10 or more miles (16+ km)
Ceiling: at least 12,000 feet AGL
Clouds: scattered clouds at 3700 feet AGL
scattered clouds at 4300 feet AGL
scattered clouds at 4900 feet AGL
Weather: automated observation with no human augmentation;
there may or may not be significant weather present at this time

METAR text: KLMO 030215Z AUTO 19005G21KT 170V240 10SM -RA SCT037 BKN065 OVC095 27/06 A3007 RMK AO2 T02720063
Conditions at: KLMO (LONGMONT/VBRAND , CO, US) observed 0215 UTC 03 July 2022
Temperature: 27.2°C (81°F)
Dewpoint: 6.3°C (43°F) [RH = 26%]
Pressure (altimeter): 30.07 inches Hg (1018.4 mb)
Winds: from the S (190 degrees) at 6 MPH (5 knots; 2.6 m/s)
gusting to 24 MPH (21 knots; 10.8 m/s)
Visibility: 10 or more miles (16+ km)
Ceiling: 6500 feet AGL
Clouds: scattered clouds at 3700 feet AGL
broken clouds at 6500 feet AGL
overcast cloud deck at 9500 feet AGL
Weather: -RA  (light rain)

METAR text: KLMO 030155Z AUTO 21005KT 10SM SCT075 BKN100 BKN120 27/08 A3008 RMK AO2 T02720084
Conditions at: KLMO (LONGMONT/VBRAND , CO, US) observed 0155 UTC 03 July 2022
Temperature: 27.2°C (81°F)
Dewpoint: 8.4°C (47°F) [RH = 31%]
Pressure (altimeter): 30.08 inches Hg (1018.7 mb)
Winds: from the SSW (210 degrees) at 6 MPH (5 knots; 2.6 m/s)
Visibility: 10 or more miles (16+ km)
Ceiling: 10000 feet AGL
Clouds: scattered clouds at 7500 feet AGL
broken clouds at 10000 feet AGL
broken clouds at 12000 feet AGL
Weather: automated observation with no human augmentation;
there may or may not be significant weather present at this time